createdAt,value
2018-11-11T00:00:43.834Z,940.37
2018-11-11T00:01:43.752Z,940.36
2018-11-11T00:02:43.636Z,940.44
2018-11-11T00:03:43.540Z,940.48
2018-11-11T00:04:43.548Z,940.47
2018-11-11T00:05:43.338Z,940.49
2018-11-11T00:06:43.257Z,940.52
2018-11-11T00:07:43.145Z,940.47
2018-11-11T00:08:43.044Z,940.47
2018-11-11T00:09:42.951Z,940.47
2018-11-11T00:10:42.845Z,940.47
2018-11-11T00:11:42.874Z,940.50
2018-11-11T00:12:42.651Z,940.46
2018-11-11T00:13:42.552Z,940.45
2018-11-11T00:14:42.451Z,940.44
2018-11-11T00:15:42.354Z,940.44
2018-11-11T00:16:42.271Z,940.37
2018-11-11T00:17:42.154Z,940.46
2018-11-11T00:18:42.162Z,940.27
2018-11-11T00:19:41.960Z,940.32
2018-11-11T00:20:41.860Z,940.35
2018-11-11T00:21:41.791Z,940.35
2018-11-11T00:22:41.662Z,940.25
2018-11-11T00:23:41.563Z,940.41
2018-11-11T00:24:41.465Z,940.39
2018-11-11T00:25:41.365Z,940.45
2018-11-11T00:26:41.286Z,940.48
2018-11-11T00:27:41.168Z,940.41
2018-11-11T00:28:41.121Z,940.47
2018-11-11T00:29:40.970Z,940.45
2018-11-11T00:30:40.894Z,940.40
2018-11-11T00:31:40.777Z,940.42
2018-11-11T00:32:40.795Z,940.53
2018-11-11T00:33:40.577Z,940.50
2018-11-11T00:34:40.477Z,940.47
2018-11-11T00:35:40.378Z,940.37
2018-11-11T00:36:40.282Z,940.50
2018-11-11T00:37:40.196Z,940.50
2018-11-11T00:38:40.180Z,940.48
2018-11-11T00:39:40.131Z,940.46
2018-11-11T00:40:39.885Z,940.39
2018-11-11T00:41:39.787Z,940.45
2018-11-11T00:42:40.138Z,940.34
2018-11-11T00:43:39.588Z,940.38
2018-11-11T00:44:39.489Z,940.34
2018-11-11T00:45:39.391Z,940.36
2018-11-11T00:46:39.294Z,940.35
2018-11-11T00:47:39.210Z,940.38
2018-11-11T00:48:39.110Z,940.37
2018-11-11T00:49:38.995Z,940.44
2018-11-11T00:50:38.898Z,940.43
2018-11-11T00:51:38.800Z,940.45
2018-11-11T00:52:38.717Z,940.54
2018-11-11T00:53:38.601Z,940.36
2018-11-11T00:54:38.501Z,940.47
2018-11-11T00:55:38.403Z,940.33
2018-11-11T00:56:38.304Z,940.32
2018-11-11T00:57:38.222Z,940.35
2018-11-11T00:58:38.106Z,940.28
2018-11-11T00:59:38.007Z,940.38
2018-11-11T01:00:37.909Z,940.40
2018-11-11T01:01:37.813Z,940.35
2018-11-11T01:02:37.728Z,940.40
2018-11-11T01:03:37.614Z,940.41
2018-11-11T01:04:37.515Z,940.43
2018-11-11T01:05:37.414Z,940.45
2018-11-11T01:06:37.317Z,940.44
2018-11-11T01:07:37.234Z,940.44
2018-11-11T01:08:37.119Z,940.45
2018-11-11T01:09:37.022Z,940.48
2018-11-11T01:10:36.922Z,940.46
2018-11-11T01:11:36.825Z,940.45
2018-11-11T01:12:36.740Z,940.46
2018-11-11T01:13:36.625Z,940.50
2018-11-11T01:14:36.528Z,940.47
2018-11-11T01:15:36.432Z,940.51
2018-11-11T01:16:36.331Z,940.48
2018-11-11T01:17:36.246Z,940.50
2018-11-11T01:18:36.132Z,940.56
2018-11-11T01:19:36.034Z,940.59
2018-11-11T01:20:35.936Z,940.54
2018-11-11T01:21:35.836Z,940.50
2018-11-11T01:22:35.757Z,940.54
2018-11-11T01:23:35.640Z,940.44
2018-11-11T01:24:35.543Z,940.42
2018-11-11T01:25:35.442Z,940.48
2018-11-11T01:26:35.343Z,940.50
2018-11-11T01:27:35.262Z,940.47
2018-11-11T01:28:35.148Z,940.50
2018-11-11T01:29:35.047Z,940.49
2018-11-11T01:30:34.948Z,940.52
2018-11-11T01:31:34.850Z,940.63
2018-11-11T01:32:34.770Z,940.51
2018-11-11T01:33:34.654Z,940.62
2018-11-11T01:34:34.556Z,940.67
2018-11-11T01:35:34.458Z,940.61
2018-11-11T01:36:34.358Z,940.60
2018-11-11T01:37:34.277Z,940.63
2018-11-11T01:38:34.224Z,940.61
2018-11-11T01:39:34.065Z,940.65
2018-11-11T01:40:33.964Z,940.69
2018-11-11T01:41:33.867Z,940.64
2018-11-11T01:42:33.788Z,940.71
2018-11-11T01:43:33.668Z,940.66
2018-11-11T01:44:33.570Z,940.65
2018-11-11T01:45:33.470Z,940.64
2018-11-11T01:46:33.372Z,940.63
2018-11-11T01:47:33.294Z,940.70
2018-11-11T01:48:33.178Z,940.69
2018-11-11T01:49:33.077Z,940.69
2018-11-11T01:50:32.978Z,940.72
2018-11-11T01:51:32.880Z,940.62
2018-11-11T01:52:32.796Z,940.67
2018-11-11T01:53:32.683Z,940.55
2018-11-11T01:54:32.583Z,940.59
2018-11-11T01:55:32.506Z,940.49
2018-11-11T01:56:32.386Z,940.59
2018-11-11T01:57:32.304Z,940.47
2018-11-11T01:58:32.191Z,940.46
2018-11-11T01:59:32.090Z,940.40
2018-11-11T02:00:32.000Z,940.28
2018-11-11T02:01:31.897Z,940.17
2018-11-11T02:02:31.811Z,940.27
2018-11-11T02:03:31.693Z,940.17
2018-11-11T02:04:31.599Z,940.20
2018-11-11T02:05:31.499Z,940.18
2018-11-11T02:06:31.400Z,940.16
2018-11-11T02:07:31.323Z,940.25
2018-11-11T02:08:31.204Z,940.09
2018-11-11T02:09:31.109Z,939.99
2018-11-11T02:10:31.005Z,940.13
2018-11-11T02:11:30.908Z,940.18
2018-11-11T02:12:30.826Z,940.26
2018-11-11T02:13:30.709Z,940.11
2018-11-11T02:14:30.611Z,940.18
2018-11-11T02:15:30.512Z,940.18
2018-11-11T02:16:30.416Z,940.25
2018-11-11T02:17:30.426Z,940.29
2018-11-11T02:18:30.235Z,940.33
2018-11-11T02:19:30.117Z,940.30
2018-11-11T02:20:30.018Z,940.37
2018-11-11T02:21:29.942Z,940.34
2018-11-11T02:22:29.822Z,940.41
2018-11-11T02:23:29.737Z,940.35
2018-11-11T02:24:29.747Z,940.34
2018-11-11T02:25:29.525Z,940.35
2018-11-11T02:26:29.425Z,940.46
2018-11-11T02:27:29.330Z,940.35
2018-11-11T02:28:29.246Z,940.26
2018-11-11T02:29:29.128Z,940.47
2018-11-11T02:30:29.030Z,940.38
2018-11-11T02:31:29.042Z,940.41
2018-11-11T02:32:28.835Z,940.47
2018-11-11T02:33:28.748Z,940.45
2018-11-11T02:34:28.635Z,940.45
2018-11-11T02:35:28.536Z,940.49
2018-11-11T02:36:28.438Z,940.48
2018-11-11T02:37:28.358Z,940.53
2018-11-11T02:38:28.254Z,940.55
2018-11-11T02:39:28.146Z,940.50
2018-11-11T02:40:28.041Z,940.54
2018-11-11T02:41:27.943Z,940.53
2018-11-11T02:42:27.846Z,940.50
2018-11-11T02:43:27.766Z,940.53
2018-11-11T02:44:27.645Z,940.55
2018-11-11T02:45:27.671Z,940.61
2018-11-11T02:46:27.448Z,940.62
2018-11-11T02:47:27.355Z,940.64
2018-11-11T02:48:27.272Z,940.64
2018-11-11T02:49:27.154Z,940.61
2018-11-11T02:50:27.055Z,940.65
2018-11-11T02:51:26.957Z,940.64
2018-11-11T02:52:26.967Z,940.62
2018-11-11T02:53:26.772Z,940.66
2018-11-11T02:54:26.660Z,940.62
2018-11-11T02:55:26.561Z,940.64
2018-11-11T02:56:26.462Z,940.69
2018-11-11T02:57:26.367Z,940.57
2018-11-11T02:58:26.282Z,940.68
2018-11-11T02:59:26.271Z,940.59
2018-11-11T03:00:26.070Z,940.63
2018-11-11T03:01:25.969Z,940.68
2018-11-11T03:02:25.874Z,940.64
2018-11-11T03:03:25.792Z,940.68
2018-11-11T03:04:25.747Z,940.68
2018-11-11T03:05:25.574Z,940.68
2018-11-11T03:06:25.577Z,940.74
2018-11-11T03:07:25.376Z,940.77
2018-11-11T03:08:25.298Z,940.82
2018-11-11T03:09:25.194Z,940.87
2018-11-11T03:10:25.082Z,940.86
2018-11-11T03:11:24.984Z,940.96
2018-11-11T03:12:24.886Z,940.97
2018-11-11T03:13:24.924Z,940.92
2018-11-11T03:14:24.686Z,940.98
2018-11-11T03:15:24.590Z,941.04
2018-11-11T03:16:24.492Z,941.09
2018-11-11T03:17:24.391Z,941.12
2018-11-11T03:18:24.309Z,941.19
2018-11-11T03:19:24.196Z,941.17
2018-11-11T03:20:24.202Z,941.07
2018-11-11T03:21:23.998Z,941.05
2018-11-11T03:22:23.899Z,941.02
2018-11-11T03:23:23.817Z,941.04
2018-11-11T03:24:23.703Z,941.01
2018-11-11T03:25:23.603Z,941.11
2018-11-11T03:26:23.504Z,941.11
2018-11-11T03:27:23.518Z,941.22
2018-11-11T03:28:23.326Z,941.32
2018-11-11T03:29:23.218Z,941.25
2018-11-11T03:30:23.111Z,941.27
2018-11-11T03:31:23.013Z,941.29
2018-11-11T03:32:22.915Z,941.32
2018-11-11T03:33:22.832Z,941.33
2018-11-11T03:34:22.822Z,941.35
2018-11-11T03:35:22.617Z,941.32
2018-11-11T03:36:22.533Z,941.35
2018-11-11T03:37:22.427Z,941.36
2018-11-11T03:38:22.340Z,941.38
2018-11-11T03:39:22.224Z,941.42
2018-11-11T03:40:22.125Z,941.38
2018-11-11T03:41:22.025Z,941.36
2018-11-11T03:42:21.932Z,941.39
2018-11-11T03:43:21.846Z,941.42
2018-11-11T03:44:21.733Z,941.43
2018-11-11T03:45:21.631Z,941.50
2018-11-11T03:46:21.535Z,941.46
2018-11-11T03:47:21.434Z,941.46
2018-11-11T03:48:21.354Z,941.48
2018-11-11T03:49:21.237Z,941.48
2018-11-11T03:50:21.138Z,941.39
2018-11-11T03:51:21.040Z,941.38
2018-11-11T03:52:20.943Z,941.41
2018-11-11T03:53:20.859Z,941.40
2018-11-11T03:54:20.754Z,941.39
2018-11-11T03:55:20.654Z,941.38
2018-11-11T03:56:20.547Z,941.39
2018-11-11T03:57:20.453Z,941.34
2018-11-11T03:58:20.366Z,941.34
2018-11-11T03:59:20.252Z,941.34
2018-11-11T04:00:20.154Z,941.33
2018-11-11T04:01:20.053Z,941.30
2018-11-11T04:02:19.955Z,941.36
2018-11-11T04:03:19.857Z,941.35
2018-11-11T04:04:19.777Z,941.34
2018-11-11T04:05:19.657Z,941.33
2018-11-11T04:06:19.559Z,941.35
2018-11-11T04:07:19.461Z,941.35
2018-11-11T04:08:19.380Z,941.34
2018-11-11T04:09:19.263Z,941.35
2018-11-11T04:10:19.209Z,941.33
2018-11-11T04:11:19.064Z,941.28
2018-11-11T04:12:18.968Z,941.30
2018-11-11T04:13:18.871Z,941.31
2018-11-11T04:14:18.792Z,941.39
2018-11-11T04:15:18.671Z,941.44
2018-11-11T04:16:18.574Z,941.44
2018-11-11T04:17:18.474Z,941.37
2018-11-11T04:18:18.378Z,941.39
2018-11-11T04:19:18.296Z,941.35
2018-11-11T04:20:18.179Z,941.39
2018-11-11T04:21:18.078Z,941.38
2018-11-11T04:22:17.981Z,941.31
2018-11-11T04:23:17.884Z,941.33
2018-11-11T04:24:17.805Z,941.31
2018-11-11T04:25:17.686Z,941.25
2018-11-11T04:26:17.588Z,941.26
2018-11-11T04:27:17.488Z,941.24
2018-11-11T04:28:17.392Z,941.24
2018-11-11T04:29:17.320Z,941.27
2018-11-11T04:30:17.194Z,941.23
2018-11-11T04:31:17.095Z,941.19
2018-11-11T04:32:16.995Z,941.16
2018-11-11T04:33:16.898Z,941.13
2018-11-11T04:34:16.814Z,941.11
2018-11-11T04:35:16.706Z,941.08
2018-11-11T04:36:16.600Z,941.06
2018-11-11T04:37:16.501Z,941.05
2018-11-11T04:38:16.404Z,941.06
2018-11-11T04:39:16.347Z,941.04
2018-11-11T04:40:16.205Z,941.04
2018-11-11T04:41:16.110Z,941.03
2018-11-11T04:42:16.010Z,941.03
2018-11-11T04:43:15.911Z,941.05
2018-11-11T04:44:15.836Z,941.09
2018-11-11T04:45:15.712Z,941.09
2018-11-11T04:46:15.629Z,941.11
2018-11-11T04:47:15.518Z,941.04
2018-11-11T04:48:15.419Z,941.07
2018-11-11T04:49:15.336Z,941.12
2018-11-11T04:50:15.222Z,941.08
2018-11-11T04:51:15.125Z,941.04
2018-11-11T04:52:15.024Z,941.05
2018-11-11T04:53:14.927Z,941.03
2018-11-11T04:54:14.849Z,940.99
2018-11-11T04:55:14.729Z,940.99
2018-11-11T04:56:14.629Z,940.95
2018-11-11T04:57:14.644Z,940.95
2018-11-11T04:58:14.446Z,940.90
2018-11-11T04:59:14.350Z,940.85
2018-11-11T05:00:14.237Z,940.89
2018-11-11T05:01:14.163Z,940.84
2018-11-11T05:02:14.037Z,940.83
2018-11-11T05:03:13.939Z,940.82
2018-11-11T05:04:13.970Z,940.83
2018-11-11T05:05:13.742Z,940.77
2018-11-11T05:06:13.647Z,940.83
2018-11-11T05:07:13.545Z,940.87
2018-11-11T05:08:13.447Z,940.82
2018-11-11T05:09:13.367Z,940.91
2018-11-11T05:10:13.249Z,940.94
2018-11-11T05:11:13.261Z,940.93
2018-11-11T05:12:13.054Z,940.98
2018-11-11T05:13:12.956Z,941.13
2018-11-11T05:14:12.874Z,941.06
2018-11-11T05:15:12.757Z,940.98
2018-11-11T05:16:12.659Z,941.01
2018-11-11T05:17:12.559Z,941.05
2018-11-11T05:18:12.582Z,941.14
2018-11-11T05:19:12.379Z,941.17
2018-11-11T05:20:12.263Z,941.07
2018-11-11T05:21:12.164Z,941.04
2018-11-11T05:22:12.069Z,941.17
2018-11-11T05:23:11.968Z,941.16
2018-11-11T05:24:11.892Z,941.23
2018-11-11T05:25:11.879Z,941.14
2018-11-11T05:26:11.675Z,941.21
2018-11-11T05:27:11.581Z,941.07
2018-11-11T05:28:11.476Z,941.00
2018-11-11T05:29:11.393Z,941.02
2018-11-11T05:30:11.279Z,941.05
2018-11-11T05:31:11.182Z,940.96
2018-11-11T05:32:11.196Z,941.02
2018-11-11T05:33:10.982Z,940.98
2018-11-11T05:34:10.902Z,941.02
2018-11-11T05:35:10.789Z,941.02
2018-11-11T05:36:10.689Z,941.02
2018-11-11T05:37:10.588Z,941.14
2018-11-11T05:38:10.492Z,941.16
2018-11-11T05:39:10.519Z,941.13
2018-11-11T05:40:10.295Z,941.16
2018-11-11T05:41:10.192Z,941.18
2018-11-11T05:42:10.100Z,941.21
2018-11-11T05:43:09.996Z,941.27
2018-11-11T05:44:09.915Z,941.36
2018-11-11T05:45:09.800Z,941.40
2018-11-11T05:46:09.819Z,941.39
2018-11-11T05:47:09.602Z,941.40
2018-11-11T05:48:09.506Z,941.42
2018-11-11T05:49:09.410Z,941.41
2018-11-11T05:50:09.324Z,941.34
2018-11-11T05:51:09.206Z,941.36
2018-11-11T05:52:09.110Z,941.35
2018-11-11T05:53:09.123Z,941.34
2018-11-11T05:54:08.915Z,941.38
2018-11-11T05:55:08.829Z,941.39
2018-11-11T05:56:08.713Z,941.37
2018-11-11T05:57:08.617Z,941.35
2018-11-11T05:58:08.518Z,941.39
2018-11-11T05:59:08.421Z,941.42
2018-11-11T06:00:08.446Z,941.37
2018-11-11T06:01:08.221Z,941.40
2018-11-11T06:02:08.121Z,941.52
2018-11-11T06:03:08.025Z,941.56
2018-11-11T06:04:07.929Z,941.65
2018-11-11T06:05:07.842Z,941.63
2018-11-11T06:06:07.728Z,941.61
2018-11-11T06:07:07.745Z,941.47
2018-11-11T06:08:07.531Z,941.52
2018-11-11T06:09:07.432Z,941.45
2018-11-11T06:10:07.354Z,941.38
2018-11-11T06:11:07.235Z,941.42
2018-11-11T06:12:07.138Z,941.40
2018-11-11T06:13:07.037Z,941.42
2018-11-11T06:14:06.939Z,941.41
2018-11-11T06:15:06.857Z,941.43
2018-11-11T06:16:06.742Z,941.50
2018-11-11T06:17:06.646Z,941.55
2018-11-11T06:18:06.545Z,941.56
2018-11-11T06:19:06.445Z,941.52
2018-11-11T06:20:06.365Z,941.64
2018-11-11T06:21:06.360Z,941.72
2018-11-11T06:22:06.151Z,941.59
2018-11-11T06:23:06.053Z,941.62
2018-11-11T06:24:05.953Z,941.62
2018-11-11T06:25:05.873Z,941.69
2018-11-11T06:26:05.757Z,941.63
2018-11-11T06:27:05.665Z,941.60
2018-11-11T06:28:05.559Z,941.58
2018-11-11T06:29:05.461Z,941.50
2018-11-11T06:30:05.383Z,941.49
2018-11-11T06:31:05.260Z,941.45
2018-11-11T06:32:05.165Z,941.54
2018-11-11T06:33:05.064Z,941.53
2018-11-11T06:34:05.042Z,941.56
2018-11-11T06:35:04.886Z,941.68
2018-11-11T06:36:04.769Z,941.58
2018-11-11T06:37:04.672Z,941.62
2018-11-11T06:38:04.575Z,941.62
2018-11-11T06:39:04.476Z,941.57
2018-11-11T06:40:04.393Z,941.58
2018-11-11T06:41:04.277Z,941.65
2018-11-11T06:42:04.180Z,941.51
2018-11-11T06:43:04.077Z,941.57
2018-11-11T06:44:03.981Z,941.55
2018-11-11T06:45:03.903Z,941.61
2018-11-11T06:46:03.783Z,941.55
2018-11-11T06:47:03.686Z,941.51
2018-11-11T06:48:03.672Z,941.48
2018-11-11T06:49:03.486Z,941.57
2018-11-11T06:50:03.812Z,941.53
2018-11-11T06:51:03.291Z,941.55
2018-11-11T06:52:03.190Z,941.59
2018-11-11T06:53:03.091Z,941.79
2018-11-11T06:54:02.993Z,941.77
2018-11-11T06:55:02.910Z,941.79
2018-11-11T06:56:02.797Z,941.80
2018-11-11T06:57:02.697Z,941.73
2018-11-11T06:58:02.712Z,941.76
2018-11-11T06:59:02.509Z,941.75
2018-11-11T07:00:02.419Z,941.68
2018-11-11T07:01:02.304Z,941.67
2018-11-11T07:02:02.203Z,941.61
2018-11-11T07:03:02.118Z,941.69
2018-11-11T07:04:02.007Z,941.70
2018-11-11T07:05:01.934Z,941.62
2018-11-11T07:06:01.809Z,941.59
2018-11-11T07:07:01.717Z,941.52
2018-11-11T07:08:01.612Z,941.48
2018-11-11T07:09:01.511Z,941.49
2018-11-11T07:10:01.431Z,941.40
2018-11-11T07:11:01.315Z,941.40
2018-11-11T07:12:01.215Z,941.38
2018-11-11T07:13:01.121Z,941.39
2018-11-11T07:14:01.090Z,941.47
2018-11-11T07:15:00.937Z,941.32
2018-11-11T07:16:00.822Z,941.33
2018-11-11T07:17:00.720Z,941.55
2018-11-11T07:18:00.623Z,941.62
2018-11-11T07:19:00.523Z,941.61
2018-11-11T07:20:00.444Z,941.52
2018-11-11T07:21:00.326Z,941.46
2018-11-11T07:22:00.227Z,941.47
2018-11-11T07:23:00.129Z,941.49
2018-11-11T07:24:00.095Z,941.48
2018-11-11T07:24:59.950Z,941.45
2018-11-11T07:25:59.834Z,941.46
2018-11-11T07:26:59.736Z,941.47
2018-11-11T07:27:59.635Z,941.58
2018-11-11T07:28:59.535Z,941.54
2018-11-11T07:29:59.456Z,941.43
2018-11-11T07:30:59.360Z,941.63
2018-11-11T07:31:59.239Z,941.58
2018-11-11T07:32:59.143Z,941.71
2018-11-11T07:33:59.043Z,941.57
2018-11-11T07:34:58.945Z,941.68
2018-11-11T07:35:58.877Z,941.71
2018-11-11T07:36:58.747Z,941.76
2018-11-11T07:37:58.648Z,941.77
2018-11-11T07:38:58.550Z,941.78
2018-11-11T07:39:58.453Z,941.78
2018-11-11T07:40:58.369Z,941.78
2018-11-11T07:41:58.254Z,941.79
2018-11-11T07:42:58.155Z,941.78
2018-11-11T07:43:58.056Z,941.71
2018-11-11T07:44:57.959Z,941.57
2018-11-11T07:45:57.876Z,941.56
2018-11-11T07:46:57.758Z,941.54
2018-11-11T07:47:57.736Z,941.58
2018-11-11T07:48:57.565Z,941.56
2018-11-11T07:49:57.464Z,941.52
2018-11-11T07:50:57.386Z,941.53
2018-11-11T07:51:57.348Z,941.55
2018-11-11T07:52:57.169Z,941.50
2018-11-11T07:53:57.070Z,941.49
2018-11-11T07:54:57.002Z,941.47
2018-11-11T07:55:56.886Z,941.43
2018-11-11T07:56:56.772Z,941.39
2018-11-11T07:57:56.674Z,941.40
2018-11-11T07:58:56.681Z,941.44
2018-11-11T07:59:56.479Z,941.43
2018-11-11T08:00:56.395Z,941.47
2018-11-11T08:01:56.312Z,941.56
2018-11-11T08:02:56.186Z,941.67
2018-11-11T08:03:56.083Z,941.69
2018-11-11T08:04:55.985Z,941.75
2018-11-11T08:05:56.017Z,941.84
2018-11-11T08:06:55.790Z,941.80
2018-11-11T08:07:55.691Z,941.82
2018-11-11T08:08:55.593Z,941.85
2018-11-11T08:09:55.494Z,941.94
2018-11-11T08:10:55.445Z,941.83
2018-11-11T08:11:55.298Z,941.94
2018-11-11T08:12:55.319Z,941.96
2018-11-11T08:13:55.098Z,941.93
2018-11-11T08:14:55.004Z,941.88
2018-11-11T08:15:54.921Z,941.85
2018-11-11T08:16:54.872Z,941.90
2018-11-11T08:17:54.709Z,941.91
2018-11-11T08:18:54.608Z,941.94
2018-11-11T08:19:54.620Z,942.01
2018-11-11T08:20:54.427Z,942.01
2018-11-11T08:21:54.318Z,942.06
2018-11-11T08:22:54.215Z,942.06
2018-11-11T08:23:54.121Z,942.07
2018-11-11T08:24:54.017Z,942.09
2018-11-11T08:25:53.937Z,942.16
2018-11-11T08:26:53.934Z,942.19
2018-11-11T08:27:53.727Z,942.15
2018-11-11T08:28:53.630Z,942.22
2018-11-11T08:29:53.531Z,942.20
2018-11-11T08:30:53.449Z,942.29
2018-11-11T08:31:53.333Z,942.35
2018-11-11T08:32:53.237Z,942.38
2018-11-11T08:33:53.245Z,942.35
2018-11-11T08:34:53.043Z,942.37
2018-11-11T08:35:52.966Z,942.39
2018-11-11T08:36:52.845Z,942.40
2018-11-11T08:37:52.747Z,942.41
2018-11-11T08:38:52.648Z,942.42
2018-11-11T08:39:52.550Z,942.47
2018-11-11T08:40:52.579Z,942.44
2018-11-11T08:41:52.354Z,942.47
2018-11-11T08:42:52.256Z,942.43
2018-11-11T08:43:52.159Z,942.55
2018-11-11T08:44:52.062Z,942.59
2018-11-11T08:45:51.980Z,942.52
2018-11-11T08:46:51.867Z,942.52
2018-11-11T08:47:51.875Z,942.53
2018-11-11T08:48:51.676Z,942.54
2018-11-11T08:49:51.576Z,942.59
2018-11-11T08:50:51.493Z,942.57
2018-11-11T08:51:51.377Z,942.63
2018-11-11T08:52:51.278Z,942.65
2018-11-11T08:53:51.306Z,942.70
2018-11-11T08:54:51.090Z,942.77
2018-11-11T08:55:51.005Z,942.79
2018-11-11T08:56:50.890Z,942.83
2018-11-11T08:57:50.819Z,942.86
2018-11-11T08:58:50.692Z,942.83
2018-11-11T08:59:50.597Z,942.92
2018-11-11T09:00:50.517Z,942.81
2018-11-11T09:01:50.401Z,942.90
2018-11-11T09:02:50.306Z,942.92
2018-11-11T09:03:50.206Z,942.96
2018-11-11T09:04:50.135Z,942.98
2018-11-11T09:05:50.030Z,943.07
2018-11-11T09:06:49.915Z,943.20
2018-11-11T09:07:49.817Z,943.24
2018-11-11T09:08:49.738Z,943.20
2018-11-11T09:09:49.623Z,943.19
2018-11-11T09:10:49.541Z,943.14
2018-11-11T09:11:49.428Z,943.16
2018-11-11T09:12:49.325Z,943.18
2018-11-11T09:13:49.231Z,943.23
2018-11-11T09:14:49.133Z,943.19
2018-11-11T09:15:49.053Z,943.20
2018-11-11T09:16:48.937Z,943.24
2018-11-11T09:17:48.842Z,943.23
2018-11-11T09:18:48.742Z,943.18
2018-11-11T09:19:48.647Z,943.17
2018-11-11T09:20:48.567Z,943.16
2018-11-11T09:21:48.453Z,943.16
2018-11-11T09:22:48.352Z,943.10
2018-11-11T09:23:48.325Z,943.15
2018-11-11T09:24:48.158Z,943.19
2018-11-11T09:25:48.064Z,943.27
2018-11-11T09:26:47.980Z,943.27
2018-11-11T09:27:47.876Z,943.40
2018-11-11T09:28:47.769Z,943.33
2018-11-11T09:29:47.805Z,943.33
2018-11-11T09:30:47.577Z,943.30
2018-11-11T09:31:47.493Z,943.37
2018-11-11T09:32:47.377Z,943.41
2018-11-11T09:33:47.282Z,943.31
2018-11-11T09:34:47.184Z,943.32
2018-11-11T09:35:47.088Z,943.18
2018-11-11T09:36:47.010Z,943.18
2018-11-11T09:37:46.891Z,943.26
2018-11-11T09:38:46.798Z,943.23
2018-11-11T09:39:46.697Z,943.20
2018-11-11T09:40:46.602Z,943.16
2018-11-11T09:41:46.524Z,943.16
2018-11-11T09:42:46.407Z,943.22
2018-11-11T09:43:46.309Z,943.28
2018-11-11T09:44:46.210Z,943.22
2018-11-11T09:45:46.114Z,943.16
2018-11-11T09:46:46.033Z,943.12
2018-11-11T09:47:45.960Z,943.17
2018-11-11T09:48:45.822Z,943.19
2018-11-11T09:49:45.725Z,943.22
2018-11-11T09:50:45.635Z,943.29
2018-11-11T09:51:45.548Z,943.29
2018-11-11T09:52:45.553Z,943.33
2018-11-11T09:53:45.336Z,943.40
2018-11-11T09:54:45.238Z,943.53
2018-11-11T09:55:45.173Z,943.53
2018-11-11T09:56:45.064Z,943.51
2018-11-11T09:57:44.947Z,943.49
2018-11-11T09:58:44.937Z,943.51
2018-11-11T09:59:44.772Z,943.53
2018-11-11T10:00:44.657Z,943.57
2018-11-11T10:01:44.579Z,943.53
2018-11-11T10:02:44.462Z,943.51
2018-11-11T10:03:44.367Z,943.52
2018-11-11T10:04:44.324Z,943.62
2018-11-11T10:05:44.176Z,943.66
2018-11-11T10:06:44.165Z,943.72
2018-11-11T10:07:43.978Z,943.73
2018-11-11T10:08:43.881Z,943.73
2018-11-11T10:09:43.787Z,943.73
2018-11-11T10:10:43.692Z,943.79
2018-11-11T10:11:43.612Z,943.73
2018-11-11T10:12:43.547Z,943.73
2018-11-11T10:13:43.399Z,943.82
2018-11-11T10:14:43.303Z,943.82
2018-11-11T10:15:43.209Z,943.83
2018-11-11T10:16:43.123Z,943.89
2018-11-11T10:17:43.010Z,943.84
2018-11-11T10:18:42.915Z,943.74
2018-11-11T10:19:42.818Z,943.82
2018-11-11T10:20:42.738Z,943.79
2018-11-11T10:21:42.642Z,943.87
2018-11-11T10:22:42.528Z,943.82
2018-11-11T10:23:42.430Z,943.84
2018-11-11T10:24:42.333Z,943.81
2018-11-11T10:25:42.235Z,943.84
2018-11-11T10:26:42.155Z,943.91
2018-11-11T10:27:42.041Z,943.87
2018-11-11T10:28:41.944Z,943.87
2018-11-11T10:29:41.891Z,943.90
2018-11-11T10:30:41.750Z,943.94
2018-11-11T10:31:41.777Z,943.88
2018-11-11T10:32:41.559Z,943.91
2018-11-11T10:33:41.545Z,943.93
2018-11-11T10:34:41.363Z,943.93
2018-11-11T10:35:41.267Z,943.88
2018-11-11T10:36:41.184Z,943.78
2018-11-11T10:37:41.072Z,943.82
2018-11-11T10:38:41.081Z,943.80
2018-11-11T10:39:40.878Z,943.79
2018-11-11T10:40:40.780Z,943.88
2018-11-11T10:41:40.701Z,943.79
2018-11-11T10:42:40.586Z,943.86
2018-11-11T10:43:40.489Z,943.98
2018-11-11T10:44:40.390Z,943.98
2018-11-11T10:45:40.418Z,943.79
2018-11-11T10:46:40.217Z,943.99
2018-11-11T10:47:40.102Z,943.86
2018-11-11T10:48:40.003Z,943.92
2018-11-11T10:49:39.906Z,943.77
2018-11-11T10:50:39.810Z,944.01
2018-11-11T10:51:39.729Z,943.80
2018-11-11T10:52:39.818Z,943.79
2018-11-11T10:53:39.522Z,943.91
2018-11-11T10:54:39.425Z,944.15
2018-11-11T10:55:39.335Z,943.88
2018-11-11T10:56:39.252Z,943.81
2018-11-11T10:57:39.133Z,943.98
2018-11-11T10:58:39.036Z,943.85
2018-11-11T10:59:39.052Z,943.88
2018-11-11T11:00:38.848Z,944.02
2018-11-11T11:01:38.766Z,943.89
2018-11-11T11:02:38.652Z,943.88
2018-11-11T11:03:38.558Z,943.91
2018-11-11T11:04:38.460Z,943.87
2018-11-11T11:05:38.382Z,943.91
2018-11-11T11:06:38.406Z,943.87
2018-11-11T11:07:38.171Z,943.92
2018-11-11T11:08:38.075Z,943.91
2018-11-11T11:09:37.981Z,943.91
2018-11-11T11:10:37.884Z,943.89
2018-11-11T11:11:37.806Z,943.81
2018-11-11T11:12:37.691Z,943.81
2018-11-11T11:13:37.831Z,943.85
2018-11-11T11:14:37.499Z,943.92
2018-11-11T11:15:37.404Z,943.91
2018-11-11T11:16:37.308Z,943.86
2018-11-11T11:17:37.234Z,943.88
2018-11-11T11:18:37.113Z,943.93
2018-11-11T11:19:37.019Z,943.91
2018-11-11T11:20:37.024Z,943.69
2018-11-11T11:21:36.829Z,943.75
2018-11-11T11:22:36.752Z,943.77
2018-11-11T11:23:36.634Z,943.74
2018-11-11T11:24:36.538Z,943.77
2018-11-11T11:25:36.509Z,943.86
2018-11-11T11:26:36.350Z,943.82
2018-11-11T11:27:36.374Z,943.85
2018-11-11T11:28:36.159Z,943.74
2018-11-11T11:29:36.059Z,943.71
2018-11-11T11:30:35.963Z,943.67
2018-11-11T11:31:35.908Z,943.66
2018-11-11T11:32:35.787Z,943.68
2018-11-11T11:33:35.678Z,943.66
2018-11-11T11:34:35.695Z,943.80
2018-11-11T11:35:35.494Z,943.83
2018-11-11T11:36:35.385Z,943.60
2018-11-11T11:37:35.305Z,943.56
2018-11-11T11:38:35.198Z,943.59
2018-11-11T11:39:35.102Z,943.62
2018-11-11T11:40:35.006Z,943.63
2018-11-11T11:41:34.909Z,943.68
2018-11-11T11:42:34.831Z,943.60
2018-11-11T11:43:34.717Z,943.61
2018-11-11T11:44:34.637Z,943.65
2018-11-11T11:45:34.526Z,943.65
2018-11-11T11:46:34.434Z,943.70
2018-11-11T11:47:34.407Z,943.70
2018-11-11T11:48:34.348Z,943.74
2018-11-11T11:49:34.145Z,943.65
2018-11-11T11:50:34.147Z,943.69
2018-11-11T11:51:33.955Z,943.64
2018-11-11T11:52:33.973Z,943.58
2018-11-11T11:53:33.766Z,943.68
2018-11-11T11:54:33.671Z,943.66
2018-11-11T11:55:33.575Z,943.75
2018-11-11T11:56:33.478Z,943.76
2018-11-11T11:57:33.761Z,943.77
2018-11-11T11:58:33.287Z,943.79
2018-11-11T11:59:33.193Z,943.78
2018-11-11T12:00:33.094Z,943.68
2018-11-11T12:01:33.005Z,943.69
2018-11-11T12:02:33.036Z,943.72
2018-11-11T12:03:32.813Z,943.76
2018-11-11T12:04:32.718Z,943.75
2018-11-11T12:05:32.630Z,943.81
2018-11-11T12:06:32.527Z,943.80
2018-11-11T12:07:32.447Z,943.76
2018-11-11T12:08:32.345Z,943.75
2018-11-11T12:09:32.241Z,943.76
2018-11-11T12:10:32.144Z,943.72
2018-11-11T12:11:32.049Z,943.70
2018-11-11T12:12:31.969Z,943.82
2018-11-11T12:13:31.857Z,943.81
2018-11-11T12:14:31.760Z,943.77
2018-11-11T12:15:31.685Z,943.84
2018-11-11T12:16:31.605Z,943.88
2018-11-11T12:17:31.491Z,943.83
2018-11-11T12:18:31.377Z,943.76
2018-11-11T12:19:31.284Z,943.77
2018-11-11T12:20:31.185Z,943.70
2018-11-11T12:21:31.094Z,943.69
2018-11-11T12:22:31.015Z,943.69
2018-11-11T12:23:30.899Z,943.70
2018-11-11T12:24:30.805Z,943.73
2018-11-11T12:25:30.710Z,943.65
2018-11-11T12:26:30.615Z,943.67
2018-11-11T12:27:30.538Z,943.80